createdAt,value
2023-04-11T00:00:32.671Z,10.40
2023-04-11T00:03:03.972Z,10.20
2023-04-11T00:05:37.138Z,10.10
2023-04-11T00:08:07.373Z,10.00
2023-04-11T00:10:38.041Z,9.90
2023-04-11T00:13:08.209Z,9.90
2023-04-11T00:15:40.029Z,9.80
2023-04-11T00:18:10.208Z,9.80
2023-04-11T00:20:42.099Z,9.80
2023-04-11T00:23:12.338Z,10.00
2023-04-11T00:25:42.758Z,10.00
2023-04-11T00:28:13.293Z,10.00
2023-04-11T00:30:43.462Z,10.00
2023-04-11T00:33:13.671Z,10.00
2023-04-11T00:35:46.736Z,10.00
2023-04-11T00:38:17.329Z,10.00
2023-04-11T00:40:47.609Z,10.00
2023-04-11T00:43:17.748Z,9.90
2023-04-11T00:45:48.356Z,9.80
2023-04-11T00:48:18.720Z,9.80
2023-04-11T00:50:50.724Z,9.70
2023-04-11T00:53:21.552Z,9.70
2023-04-11T00:55:52.628Z,9.70
2023-04-11T00:58:22.896Z,9.70
2023-04-11T01:00:53.169Z,9.60
2023-04-11T01:03:24.457Z,9.60
2023-04-11T01:05:57.639Z,9.60
2023-04-11T01:08:28.577Z,9.50
2023-04-11T01:10:59.028Z,9.50
2023-04-11T01:13:29.941Z,9.50
2023-04-11T01:16:00.421Z,9.50
2023-04-11T01:18:30.870Z,9.50
2023-04-11T01:21:03.016Z,9.50
2023-04-11T01:23:35.325Z,9.60
2023-04-11T01:26:05.682Z,9.70
2023-04-11T01:28:35.863Z,9.70
2023-04-11T01:31:07.759Z,9.70
2023-04-11T01:33:38.368Z,9.70
2023-04-11T01:36:11.184Z,9.60
2023-04-11T01:38:43.387Z,9.50
2023-04-11T01:41:13.862Z,9.40
2023-04-11T01:43:44.543Z,9.30
2023-04-11T01:46:15.455Z,9.20
2023-04-11T01:48:48.460Z,9.10
2023-04-11T01:51:19.009Z,9.00
2023-04-11T01:53:52.655Z,9.00
2023-04-11T01:56:22.952Z,8.90
2023-04-11T01:58:53.482Z,8.80
2023-04-11T02:01:24.062Z,8.80
2023-04-11T02:03:54.431Z,8.70
2023-04-11T02:06:24.762Z,8.60
2023-04-11T02:08:56.900Z,8.60
2023-04-11T02:11:27.229Z,8.60
2023-04-11T02:13:57.347Z,8.60
2023-04-11T02:16:30.568Z,8.60
2023-04-11T02:19:00.721Z,8.60
2023-04-11T02:21:30.915Z,8.60
2023-04-11T02:24:03.213Z,8.50
2023-04-11T02:26:33.949Z,8.50
2023-04-11T02:29:04.618Z,8.50
2023-04-11T02:31:34.895Z,8.50
2023-04-11T02:34:05.303Z,8.50
2023-04-11T02:36:35.540Z,8.50
2023-04-11T02:39:07.837Z,8.50
2023-04-11T02:41:40.798Z,8.50
2023-04-11T02:44:12.524Z,8.50
2023-04-11T02:46:42.951Z,8.50
2023-04-11T02:49:13.258Z,8.50
2023-04-11T02:51:43.851Z,8.50
2023-04-11T02:54:16.073Z,8.50
2023-04-11T02:56:46.781Z,8.50
2023-04-11T02:59:16.892Z,8.50
2023-04-11T03:01:48.492Z,8.30
2023-04-11T03:04:18.718Z,8.30
2023-04-11T03:06:48.961Z,8.30
2023-04-11T03:09:20.716Z,8.30
2023-04-11T03:11:50.906Z,8.40
2023-04-11T03:14:21.076Z,8.30
2023-04-11T03:16:51.562Z,8.20
2023-04-11T03:19:21.741Z,8.20
2023-04-11T03:21:51.936Z,8.10
2023-04-11T03:24:24.450Z,8.10
2023-04-11T03:26:54.626Z,8.10
2023-04-11T03:29:24.749Z,7.90
2023-04-11T03:31:55.168Z,7.60
2023-04-11T03:34:26.719Z,7.30
2023-04-11T03:36:56.890Z,7.00
2023-04-11T03:39:28.695Z,6.80
2023-04-11T03:41:58.964Z,6.50
2023-04-11T03:44:29.103Z,6.30
2023-04-11T03:46:59.330Z,6.10
2023-04-11T03:49:29.523Z,6.10
2023-04-11T03:52:00.204Z,6.00
2023-04-11T03:54:32.511Z,5.90
2023-04-11T03:57:03.166Z,5.80
2023-04-11T03:59:33.563Z,5.70
2023-04-11T04:02:04.039Z,5.50
2023-04-11T04:04:35.485Z,5.50
2023-04-11T04:07:05.953Z,5.70
2023-04-11T04:09:37.706Z,5.70
2023-04-11T04:12:08.556Z,5.60
2023-04-11T04:14:38.856Z,5.60
2023-04-11T04:17:09.032Z,5.40
2023-04-11T04:19:39.181Z,5.30
2023-04-11T04:22:12.356Z,5.40
2023-04-11T04:24:46.714Z,5.50
2023-04-11T04:27:18.788Z,5.60
2023-04-11T04:29:54.726Z,5.70
2023-04-11T04:32:34.096Z,5.70
2023-04-11T04:35:04.446Z,5.50
2023-04-11T04:37:34.751Z,5.40
2023-04-11T04:40:09.661Z,5.30
2023-04-11T04:42:42.175Z,5.30
2023-04-11T04:45:13.397Z,5.30
2023-04-11T04:47:43.660Z,5.30
2023-04-11T04:50:14.130Z,5.30
2023-04-11T04:52:44.517Z,5.30
2023-04-11T04:55:17.392Z,5.40
2023-04-11T04:57:47.617Z,5.50
2023-04-11T05:00:18.230Z,5.70
2023-04-11T05:02:48.661Z,6.10
2023-04-11T05:05:19.293Z,6.40
2023-04-11T05:07:49.575Z,6.80
2023-04-11T05:10:21.460Z,7.20
2023-04-11T05:12:53.896Z,7.50
2023-04-11T05:15:24.227Z,7.60
2023-04-11T05:17:54.711Z,7.80
2023-04-11T05:20:25.350Z,8.00
2023-04-11T05:22:55.569Z,8.20
2023-04-11T05:25:28.467Z,8.30
2023-04-11T05:27:59.040Z,8.30
2023-04-11T05:30:29.371Z,8.40
2023-04-11T05:33:00.128Z,8.40
2023-04-11T05:35:30.352Z,8.40
2023-04-11T05:38:00.685Z,8.40
2023-04-11T05:40:32.500Z,8.50
2023-04-11T05:43:02.683Z,8.60
2023-04-11T05:45:33.034Z,8.60
2023-04-11T05:48:04.782Z,8.70
2023-04-11T05:50:35.600Z,8.80
2023-04-11T05:53:06.108Z,8.80
2023-04-11T05:55:38.865Z,8.90
2023-04-11T05:58:09.090Z,8.90
2023-04-11T06:00:39.265Z,8.90
2023-04-11T06:03:10.132Z,8.90
2023-04-11T06:05:40.432Z,9.00
2023-04-11T06:08:11.136Z,9.00
2023-04-11T06:10:43.105Z,9.00
2023-04-11T06:13:13.315Z,9.00
2023-04-11T06:15:43.522Z,9.00
2023-04-11T06:18:13.748Z,8.80
2023-04-11T06:20:44.012Z,8.80
2023-04-11T06:23:14.289Z,8.60
2023-04-11T06:25:46.315Z,8.50
2023-04-11T06:28:17.441Z,8.40
2023-04-11T06:30:47.581Z,8.30
2023-04-11T06:33:17.741Z,8.20
2023-04-11T06:35:47.951Z,8.10
2023-04-11T06:38:18.084Z,8.00
2023-04-11T06:40:52.243Z,8.00
2023-04-11T06:43:22.487Z,8.00
2023-04-11T06:45:53.463Z,7.90
2023-04-11T06:48:23.788Z,7.90
2023-04-11T06:50:53.957Z,7.90
2023-04-11T06:53:24.928Z,7.90
2023-04-11T06:55:57.892Z,7.90
2023-04-11T06:58:28.295Z,7.80
2023-04-11T07:00:58.522Z,7.60
2023-04-11T07:03:29.149Z,7.50
2023-04-11T07:05:59.402Z,7.50
2023-04-11T07:08:29.575Z,7.30
2023-04-11T07:11:01.404Z,7.20
2023-04-11T07:13:31.970Z,7.10
2023-04-11T07:16:02.160Z,6.90
2023-04-11T07:18:33.819Z,6.70
2023-04-11T07:21:03.961Z,6.60
2023-04-11T07:23:34.109Z,6.40
2023-04-11T07:26:07.414Z,6.20
2023-04-11T07:28:38.397Z,6.10
2023-04-11T07:31:10.326Z,6.00
2023-04-11T07:33:40.612Z,5.90
2023-04-11T07:36:11.766Z,5.90
2023-04-11T07:38:42.110Z,5.90
2023-04-11T07:41:14.165Z,5.90
2023-04-11T07:43:44.655Z,6.00
2023-04-11T07:46:15.709Z,6.00
2023-04-11T07:48:45.978Z,6.00
2023-04-11T07:51:17.606Z,6.10
2023-04-11T07:53:48.091Z,6.00
2023-04-11T07:56:20.176Z,6.00
2023-04-11T07:58:50.488Z,6.00
2023-04-11T08:01:25.523Z,6.00
2023-04-11T08:03:58.085Z,5.90
2023-04-11T08:06:29.594Z,5.90
2023-04-11T08:09:01.556Z,5.90
2023-04-11T08:11:33.604Z,5.90
2023-04-11T08:14:03.932Z,5.90
2023-04-11T08:16:36.186Z,6.00
2023-04-11T08:19:06.371Z,5.90
2023-04-11T08:21:36.496Z,6.00
2023-04-11T08:24:06.874Z,5.90
2023-04-11T08:26:38.697Z,5.90
2023-04-11T08:29:11.721Z,5.90
2023-04-11T08:31:46.075Z,5.90
2023-04-11T08:34:16.358Z,6.10
2023-04-11T08:36:46.672Z,6.20
2023-04-11T08:39:16.965Z,6.30
2023-04-11T08:41:48.752Z,6.40
2023-04-11T08:44:19.325Z,6.40
2023-04-11T08:46:50.018Z,6.40
2023-04-11T08:49:20.287Z,6.40
2023-04-11T08:51:51.950Z,6.40
2023-04-11T08:54:22.752Z,6.40
2023-04-11T08:56:55.531Z,6.40
2023-04-11T08:59:25.811Z,6.50
2023-04-11T09:02:10.343Z,6.60
2023-04-11T09:04:44.335Z,6.70
2023-04-11T09:07:14.502Z,6.80
2023-04-11T09:09:44.731Z,6.80
2023-04-11T09:12:16.832Z,6.70
2023-04-11T09:14:47.404Z,6.70
2023-04-11T09:17:17.641Z,6.70
2023-04-11T09:19:49.348Z,6.80
2023-04-11T09:22:19.819Z,6.80
2023-04-11T09:25:04.910Z,7.00
2023-04-11T09:27:36.748Z,7.10
2023-04-11T09:30:08.035Z,7.10
2023-04-11T09:32:38.304Z,7.20
2023-04-11T09:35:13.104Z,7.20
2023-04-11T09:37:48.045Z,7.30
2023-04-11T09:40:19.684Z,7.30
2023-04-11T09:42:57.676Z,7.30
2023-04-11T09:45:28.873Z,7.40
2023-04-11T09:48:00.398Z,7.50
2023-04-11T09:50:31.002Z,7.50
2023-04-11T09:53:01.500Z,7.50
2023-04-11T09:55:31.694Z,7.50
2023-04-11T09:58:03.529Z,7.50
2023-04-11T10:00:34.180Z,7.50
2023-04-11T10:03:04.414Z,7.50
2023-04-11T10:05:35.153Z,7.50
2023-04-11T10:08:08.575Z,7.50
2023-04-11T10:10:39.425Z,7.50
2023-04-11T10:13:41.335Z,7.40
2023-04-11T10:16:14.107Z,7.40
2023-04-11T10:19:27.778Z,7.40
2023-04-11T10:21:58.762Z,7.40
2023-04-11T10:24:28.943Z,7.30
2023-04-11T10:27:00.174Z,7.40
2023-04-11T10:29:51.742Z,7.40
2023-04-11T10:32:26.586Z,7.50
2023-04-11T10:35:32.648Z,7.60
2023-04-11T10:38:02.865Z,7.60
2023-04-11T10:40:33.378Z,7.60
2023-04-11T10:43:23.092Z,7.60
2023-04-11T10:46:20.648Z,7.60
2023-04-11T10:49:01.286Z,7.60
2023-04-11T10:51:32.192Z,7.60
2023-04-11T10:54:03.500Z,7.70
2023-04-11T10:56:57.329Z,7.90
2023-04-11T11:00:01.767Z,8.00
2023-04-11T11:02:43.148Z,8.00
2023-04-11T11:05:21.485Z,8.00
2023-04-11T11:07:53.499Z,8.10
2023-04-11T11:10:43.090Z,8.10
2023-04-11T11:13:13.735Z,8.10
2023-04-11T11:15:50.040Z,8.10
2023-04-11T11:18:21.975Z,8.00
2023-04-11T11:20:58.179Z,8.00
2023-04-11T11:23:28.432Z,8.10
2023-04-11T11:25:59.751Z,8.10
2023-04-11T11:28:29.981Z,8.10
2023-04-11T11:31:00.576Z,8.20
2023-04-11T11:33:32.327Z,8.20
2023-04-11T11:36:05.190Z,8.20
2023-04-11T11:38:35.405Z,8.30
2023-04-11T11:41:06.329Z,8.30
2023-04-11T11:43:40.125Z,8.30
2023-04-11T11:46:12.189Z,8.40
2023-04-11T11:48:45.475Z,8.40
2023-04-11T11:51:15.662Z,8.40
2023-04-11T11:53:46.016Z,8.50
2023-04-11T11:56:17.662Z,8.50
2023-04-11T11:58:48.215Z,8.60
2023-04-11T12:01:19.000Z,8.60
2023-04-11T12:03:54.295Z,8.70
2023-04-11T12:06:25.010Z,8.70
2023-04-11T12:08:55.258Z,8.80
2023-04-11T12:11:25.941Z,8.80
2023-04-11T12:13:56.900Z,8.80
2023-04-11T12:16:27.414Z,8.80
2023-04-11T12:19:01.845Z,8.80
2023-04-11T12:21:32.685Z,8.80
2023-04-11T12:24:03.226Z,8.80
2023-04-11T12:26:33.467Z,8.80
2023-04-11T12:29:04.116Z,8.80
2023-04-11T12:31:34.352Z,8.80
2023-04-11T12:34:06.431Z,8.80
2023-04-11T12:36:37.501Z,8.80
2023-04-11T12:39:07.879Z,8.80
2023-04-11T12:41:38.104Z,8.80
2023-04-11T12:44:08.247Z,8.80
2023-04-11T12:46:38.564Z,8.90
2023-04-11T12:49:10.586Z,8.90
2023-04-11T12:51:41.339Z,9.00
2023-04-11T12:54:11.711Z,9.10
2023-04-11T12:56:42.401Z,9.20
2023-04-11T12:59:12.537Z,9.20
2023-04-11T13:01:44.339Z,9.30
2023-04-11T13:04:16.331Z,9.40
2023-04-11T13:06:48.270Z,9.50
2023-04-11T13:09:18.363Z,9.60
2023-04-11T13:11:48.799Z,9.80
2023-04-11T13:14:18.976Z,9.90
2023-04-11T13:16:49.716Z,10.00
2023-04-11T13:19:21.702Z,10.10
2023-04-11T13:21:51.924Z,10.20
2023-04-11T13:24:22.507Z,10.40
2023-04-11T13:26:52.711Z,10.50
2023-04-11T13:29:22.875Z,10.60
2023-04-11T13:31:53.257Z,10.70
2023-04-11T13:34:25.053Z,10.80
2023-04-11T13:36:55.258Z,11.10
2023-04-11T13:39:25.501Z,11.20
2023-04-11T13:41:55.700Z,11.40
2023-04-11T13:44:25.870Z,11.50
2023-04-11T13:46:56.108Z,11.50
2023-04-11T13:49:27.909Z,11.60
2023-04-11T13:51:59.523Z,11.70
2023-04-11T13:54:30.854Z,11.80
2023-04-11T13:57:01.474Z,11.80
2023-04-11T13:59:31.652Z,11.80
2023-04-11T14:02:02.264Z,11.80
2023-04-11T14:04:34.334Z,11.90
2023-04-11T14:07:04.718Z,12.00
2023-04-11T14:09:34.939Z,12.10
2023-04-11T14:12:06.601Z,12.20
2023-04-11T14:14:38.267Z,12.40
2023-04-11T14:17:09.417Z,12.60
2023-04-11T14:19:41.695Z,12.70
2023-04-11T14:22:12.857Z,12.80
2023-04-11T14:24:43.074Z,12.90
2023-04-11T14:27:13.237Z,13.00
2023-04-11T14:29:43.377Z,13.10
2023-04-11T14:32:13.668Z,13.20
2023-04-11T14:34:45.416Z,13.20
2023-04-11T14:37:15.658Z,13.20
2023-04-11T14:39:45.857Z,13.30
2023-04-11T14:42:16.058Z,13.40
2023-04-11T14:44:46.308Z,13.40
2023-04-11T14:47:16.486Z,13.40
2023-04-11T14:49:48.221Z,13.50
2023-04-11T14:52:18.756Z,13.60
2023-04-11T14:54:49.487Z,13.70
2023-04-11T14:57:19.708Z,13.80
2023-04-11T14:59:50.755Z,13.80
2023-04-11T15:02:21.088Z,13.90
2023-04-11T15:04:54.258Z,14.00
2023-04-11T15:07:24.884Z,13.90
2023-04-11T15:09:55.219Z,13.90
2023-04-11T15:12:25.539Z,14.00
2023-04-11T15:14:55.728Z,14.00
2023-04-11T15:17:25.997Z,14.10
2023-04-11T15:19:58.432Z,14.10
2023-04-11T15:22:28.747Z,14.30
2023-04-11T15:24:58.938Z,14.30
2023-04-11T15:27:29.126Z,14.40
2023-04-11T15:30:02.931Z,14.40
2023-04-11T15:32:33.318Z,14.40
2023-04-11T15:35:05.369Z,14.40
2023-04-11T15:37:35.765Z,14.30
2023-04-11T15:40:08.472Z,14.30
2023-04-11T15:42:38.818Z,14.20
2023-04-11T15:45:10.288Z,14.30
2023-04-11T15:47:40.569Z,14.30
2023-04-11T15:50:13.367Z,14.30
2023-04-11T15:52:43.768Z,14.30
2023-04-11T15:55:14.204Z,14.40
2023-04-11T15:57:44.425Z,14.50
2023-04-11T16:00:16.409Z,14.50
2023-04-11T16:02:47.808Z,14.60
2023-04-11T16:05:21.308Z,14.80
2023-04-11T16:07:51.819Z,14.90
2023-04-11T16:10:22.187Z,15.10
2023-04-11T16:12:52.801Z,15.00
2023-04-11T16:15:23.185Z,15.00
2023-04-11T16:17:53.701Z,14.90
2023-04-11T16:20:25.689Z,14.90
2023-04-11T16:22:55.918Z,14.80
2023-04-11T16:25:26.286Z,14.70
2023-04-11T16:27:56.473Z,14.70
2023-04-11T16:30:28.428Z,14.80
2023-04-11T16:32:58.663Z,14.90
2023-04-11T16:35:30.498Z,15.00
2023-04-11T16:38:00.842Z,15.10
2023-04-11T16:40:32.368Z,15.20
2023-04-11T16:43:02.527Z,15.30
2023-04-11T16:45:32.714Z,15.50
2023-04-11T16:48:03.133Z,15.60
2023-04-11T16:50:34.900Z,15.50
2023-04-11T16:53:05.233Z,15.60
2023-04-11T16:55:35.536Z,15.60
2023-04-11T16:58:06.159Z,15.80
2023-04-11T17:00:36.919Z,15.70
2023-04-11T17:03:07.907Z,15.60
2023-04-11T17:05:40.068Z,15.60
2023-04-11T17:08:10.488Z,15.80
2023-04-11T17:10:40.675Z,16.10
2023-04-11T17:13:12.545Z,16.30
2023-04-11T17:15:42.797Z,16.30
2023-04-11T17:18:12.970Z,16.50
2023-04-11T17:20:47.278Z,16.90
2023-04-11T17:23:17.471Z,17.30
2023-04-11T17:25:48.219Z,17.50
2023-04-11T17:28:18.648Z,17.50
2023-04-11T17:30:49.225Z,17.60
2023-04-11T17:33:19.578Z,17.70
2023-04-11T17:35:51.362Z,17.90
2023-04-11T17:38:21.641Z,18.00
2023-04-11T17:40:53.923Z,18.10
2023-04-11T17:43:27.701Z,18.00
2023-04-11T17:45:58.084Z,17.70
2023-04-11T17:48:28.364Z,17.50
2023-04-11T17:51:00.497Z,17.60
2023-04-11T17:53:31.581Z,17.60
2023-04-11T17:56:06.406Z,17.70
2023-04-11T17:58:36.795Z,17.60
2023-04-11T18:01:11.756Z,17.70
2023-04-11T18:03:42.389Z,17.70
2023-04-11T18:06:14.345Z,17.80
2023-04-11T18:08:50.504Z,17.80
2023-04-11T18:11:21.876Z,17.90
2023-04-11T18:13:52.427Z,17.70
2023-04-11T18:16:22.737Z,17.40
2023-04-11T18:18:53.253Z,17.30
2023-04-11T18:21:25.004Z,17.10
2023-04-11T18:23:55.439Z,16.90
2023-04-11T18:26:26.185Z,16.80
2023-04-11T18:28:56.374Z,16.70
2023-04-11T18:31:26.615Z,16.70
2023-04-11T18:33:57.460Z,16.60
2023-04-11T18:36:29.639Z,16.70
2023-04-11T18:39:00.147Z,16.70
2023-04-11T18:41:30.366Z,16.70
2023-04-11T18:44:02.591Z,16.70
2023-04-11T18:46:34.314Z,16.60
2023-04-11T18:49:07.201Z,16.60
2023-04-11T18:51:40.362Z,16.50
2023-04-11T18:54:11.186Z,16.40
2023-04-11T18:56:43.741Z,16.40
2023-04-11T18:59:18.476Z,16.40
2023-04-11T19:01:49.855Z,16.30
2023-04-11T19:04:20.998Z,16.30
2023-04-11T19:06:53.284Z,16.40
2023-04-11T19:09:23.494Z,16.30
2023-04-11T19:11:53.841Z,16.30
2023-04-11T19:14:24.061Z,16.20
2023-04-11T19:16:55.477Z,16.20
2023-04-11T19:19:26.114Z,16.20
2023-04-11T19:21:58.125Z,16.10
2023-04-11T19:24:28.716Z,16.10
2023-04-11T19:26:58.994Z,16.10
2023-04-11T19:29:29.787Z,16.00
2023-04-11T19:32:00.194Z,16.00
2023-04-11T19:34:30.996Z,16.00
2023-04-11T19:37:03.252Z,16.00
2023-04-11T19:39:38.522Z,16.10
2023-04-11T19:42:10.761Z,16.20
2023-04-11T19:44:40.981Z,16.20
2023-04-11T19:47:11.619Z,16.30
2023-04-11T19:49:41.847Z,16.40
2023-04-11T19:52:14.057Z,16.40
2023-04-11T19:54:44.410Z,16.50
2023-04-11T19:57:14.600Z,16.60
2023-04-11T19:59:45.052Z,16.80
2023-04-11T20:02:15.490Z,16.90
2023-04-11T20:04:46.549Z,17.00
2023-04-11T20:07:18.627Z,17.10
2023-04-11T20:09:49.175Z,17.20
2023-04-11T20:12:19.402Z,17.40
2023-04-11T20:14:49.649Z,17.50
2023-04-11T20:17:19.768Z,17.50
2023-04-11T20:19:53.637Z,17.50
2023-04-11T20:22:26.249Z,17.40
2023-04-11T20:24:56.676Z,17.30
2023-04-11T20:27:28.636Z,17.30
2023-04-11T20:29:59.482Z,17.30
2023-04-11T20:32:29.721Z,17.20
2023-04-11T20:35:02.363Z,17.20
2023-04-11T20:37:35.826Z,17.00
2023-04-11T20:40:10.306Z,16.80
2023-04-11T20:42:41.787Z,17.00
2023-04-11T20:45:13.853Z,17.20
2023-04-11T20:47:46.657Z,17.20
2023-04-11T20:50:18.386Z,17.30
2023-04-11T20:52:53.419Z,17.20
2023-04-11T20:55:23.894Z,17.30
2023-04-11T20:57:54.148Z,17.50
2023-04-11T21:00:25.471Z,17.70
2023-04-11T21:02:55.772Z,17.80
2023-04-11T21:05:26.627Z,17.90
2023-04-11T21:07:58.899Z,18.10
2023-04-11T21:10:29.132Z,18.10
2023-04-11T21:12:59.302Z,18.20
2023-04-11T21:15:29.595Z,18.20
2023-04-11T21:17:59.941Z,18.30
2023-04-11T21:20:30.714Z,18.20
2023-04-11T21:23:03.575Z,18.20
2023-04-11T21:25:34.106Z,18.00
2023-04-11T21:28:04.486Z,18.00
2023-04-11T21:30:35.728Z,18.10
2023-04-11T21:33:05.972Z,18.10
2023-04-11T21:35:36.484Z,18.10
2023-04-11T21:38:09.115Z,18.00
2023-04-11T21:40:41.729Z,17.90
2023-04-11T21:43:12.371Z,17.70
2023-04-11T21:45:42.852Z,17.50
2023-04-11T21:48:13.046Z,17.30
2023-04-11T21:50:43.305Z,17.30
2023-04-11T21:53:16.108Z,17.30
2023-04-11T21:55:49.306Z,17.40
2023-04-11T21:58:29.074Z,17.50
2023-04-11T22:01:00.339Z,17.40
2023-04-11T22:03:31.008Z,17.20
2023-04-11T22:06:01.763Z,17.10
2023-04-11T22:08:33.594Z,17.00
2023-04-11T22:11:08.305Z,16.90
2023-04-11T22:13:40.336Z,16.90
2023-04-11T22:16:11.025Z,17.00
2023-04-11T22:18:48.061Z,17.00
2023-04-11T22:21:21.148Z,17.00
2023-04-11T22:23:56.383Z,17.00
2023-04-11T22:26:30.009Z,16.90
2023-04-11T22:29:02.773Z,16.90
2023-04-11T22:31:35.056Z,16.80
2023-04-11T22:34:05.301Z,16.70
2023-04-11T22:36:37.630Z,16.50
2023-04-11T22:39:11.164Z,16.40
2023-04-11T22:41:41.460Z,16.30
2023-04-11T22:44:12.122Z,16.20
2023-04-11T22:46:43.315Z,16.10
2023-04-11T22:49:13.520Z,16.00
2023-04-11T22:51:43.709Z,15.90
2023-04-11T22:54:16.351Z,15.80
2023-04-11T22:56:46.852Z,15.70
2023-04-11T22:59:17.195Z,15.70
2023-04-11T23:01:47.993Z,15.50
2023-04-11T23:04:18.638Z,15.40
2023-04-11T23:06:51.853Z,15.40
2023-04-11T23:09:24.476Z,15.50
2023-04-11T23:11:55.888Z,15.60
2023-04-11T23:14:31.652Z,15.80
2023-04-11T23:17:02.159Z,16.10
2023-04-11T23:19:32.955Z,16.20
2023-04-11T23:22:03.643Z,16.50
2023-04-11T23:24:36.066Z,16.70
2023-04-11T23:27:07.333Z,16.70
2023-04-11T23:29:37.804Z,16.70
2023-04-11T23:32:12.164Z,16.70
2023-04-11T23:34:43.077Z,16.70
2023-04-11T23:37:14.192Z,16.70
2023-04-11T23:39:46.173Z,16.70
2023-04-11T23:42:16.454Z,16.60
2023-04-11T23:44:47.151Z,16.60
2023-04-11T23:47:17.415Z,16.60
2023-04-11T23:49:48.194Z,16.50
2023-04-11T23:52:19.640Z,16.50
2023-04-11T23:54:52.382Z,16.50
2023-04-11T23:57:22.693Z,16.50
2023-04-11T23:59:53.061Z,16.40
